sensor_id;sensor_type;location;lat;lon;timestamp;pressure;altitude;pressure_sealevel;temperature;humidity
65376;BME280;51976;47.332;9.404;2023-05-09T00:01:52;92996.09;;;12.89;80.31
65376;BME280;51976;47.332;9.404;2023-05-09T00:04:18;92999.59;;;12.71;81.19
65376;BME280;51976;47.332;9.404;2023-05-09T00:06:44;92993.97;;;12.67;81.43
65376;BME280;51976;47.332;9.404;2023-05-09T00:09:10;92992.69;;;12.41;82.19
65376;BME280;51976;47.332;9.404;2023-05-09T00:11:35;92995.31;;;12.27;82.88
65376;BME280;51976;47.332;9.404;2023-05-09T00:14:00;92987.56;;;12.39;82.41
65376;BME280;51976;47.332;9.404;2023-05-09T00:16:27;92981.75;;;12.51;81.80
65376;BME280;51976;47.332;9.404;2023-05-09T00:18:52;92982.63;;;12.65;81.40
65376;BME280;51976;47.332;9.404;2023-05-09T00:21:18;92987.75;;;12.67;80.99
65376;BME280;51976;47.332;9.404;2023-05-09T00:23:43;92982.56;;;12.70;80.40
65376;BME280;51976;47.332;9.404;2023-05-09T00:26:09;92977.38;;;12.74;80.40
65376;BME280;51976;47.332;9.404;2023-05-09T00:28:34;92982.84;;;12.69;80.19
65376;BME280;51976;47.332;9.404;2023-05-09T00:31:00;92973.78;;;12.60;80.99
65376;BME280;51976;47.332;9.404;2023-05-09T00:33:25;92971.16;;;12.54;80.68
65376;BME280;51976;47.332;9.404;2023-05-09T00:35:52;92967.44;;;12.50;80.76
65376;BME280;51976;47.332;9.404;2023-05-09T00:38:18;92954.19;;;12.49;80.52
65376;BME280;51976;47.332;9.404;2023-05-09T00:40:43;92947.41;;;12.51;79.88
65376;BME280;51976;47.332;9.404;2023-05-09T00:43:09;92960.06;;;12.56;79.98
65376;BME280;51976;47.332;9.404;2023-05-09T00:45:35;92961.97;;;12.56;79.71
65376;BME280;51976;47.332;9.404;2023-05-09T00:48:00;92963.97;;;12.45;79.60
65376;BME280;51976;47.332;9.404;2023-05-09T00:50:25;92965.88;;;12.44;79.73
65376;BME280;51976;47.332;9.404;2023-05-09T00:52:51;92958.56;;;12.45;79.79
65376;BME280;51976;47.332;9.404;2023-05-09T00:55:17;92931.94;;;12.33;79.23
65376;BME280;51976;47.332;9.404;2023-05-09T00:57:43;92956.88;;;12.30;78.73
65376;BME280;51976;47.332;9.404;2023-05-09T01:00:09;92954.34;;;12.15;78.79
65376;BME280;51976;47.332;9.404;2023-05-09T01:02:39;92932.94;;;12.00;78.66
65376;BME280;51976;47.332;9.404;2023-05-09T01:05:05;92960.56;;;12.15;78.33
65376;BME280;51976;47.332;9.404;2023-05-09T01:08:02;92948.88;;;11.72;80.30
65376;BME280;51976;47.332;9.404;2023-05-09T01:10:47;92968.03;;;11.76;80.76
65376;BME280;51976;47.332;9.404;2023-05-09T01:13:26;92966.94;;;11.77;79.82
65376;BME280;51976;47.332;9.404;2023-05-09T01:16:02;92968.34;;;11.69;79.32
65376;BME280;51976;47.332;9.404;2023-05-09T01:18:39;92952.34;;;11.49;80.60
65376;BME280;51976;47.332;9.404;2023-05-09T01:21:13;92954.59;;;11.42;81.07
65376;BME280;51976;47.332;9.404;2023-05-09T01:23:58;92947.69;;;11.54;80.70
65376;BME280;51976;47.332;9.404;2023-05-09T01:29:33;92952.22;;;11.35;81.65
65376;BME280;51976;47.332;9.404;2023-05-09T01:32:06;92942.00;;;11.56;80.91
65376;BME280;51976;47.332;9.404;2023-05-09T01:34:32;92946.41;;;11.76;80.33
65376;BME280;51976;47.332;9.404;2023-05-09T01:37:00;92941.59;;;11.73;79.88
65376;BME280;51976;47.332;9.404;2023-05-09T01:39:28;92938.84;;;11.49;81.31
65376;BME280;51976;47.332;9.404;2023-05-09T01:41:57;92928.28;;;11.24;81.65
65376;BME280;51976;47.332;9.404;2023-05-09T01:44:25;92942.34;;;11.49;81.04
65376;BME280;51976;47.332;9.404;2023-05-09T01:46:54;92939.06;;;11.52;80.90
65376;BME280;51976;47.332;9.404;2023-05-09T01:49:20;92938.50;;;11.56;80.35
65376;BME280;51976;47.332;9.404;2023-05-09T01:51:47;92940.81;;;11.67;80.36
65376;BME280;51976;47.332;9.404;2023-05-09T01:54:14;92924.56;;;11.48;80.05
65376;BME280;51976;47.332;9.404;2023-05-09T01:56:41;92923.66;;;11.29;80.99
65376;BME280;51976;47.332;9.404;2023-05-09T01:59:07;92946.16;;;11.48;81.05
65376;BME280;51976;47.332;9.404;2023-05-09T02:01:35;92938.78;;;11.54;80.88
65376;BME280;51976;47.332;9.404;2023-05-09T02:04:01;92925.81;;;11.56;80.45
65376;BME280;51976;47.332;9.404;2023-05-09T02:06:28;92936.88;;;11.83;79.79
65376;BME280;51976;47.332;9.404;2023-05-09T02:08:54;92933.09;;;11.84;79.67
65376;BME280;51976;47.332;9.404;2023-05-09T02:11:20;92932.56;;;11.82;79.55
65376;BME280;51976;47.332;9.404;2023-05-09T02:13:46;92928.72;;;11.89;79.35
65376;BME280;51976;47.332;9.404;2023-05-09T02:16:12;92936.38;;;11.81;79.77
65376;BME280;51976;47.332;9.404;2023-05-09T02:18:37;92935.50;;;11.86;79.55
65376;BME280;51976;47.332;9.404;2023-05-09T02:21:03;92934.94;;;11.89;79.87
65376;BME280;51976;47.332;9.404;2023-05-09T02:23:29;92932.25;;;11.89;79.40
65376;BME280;51976;47.332;9.404;2023-05-09T02:25:55;92942.88;;;11.80;79.95
65376;BME280;51976;47.332;9.404;2023-05-09T02:28:22;92940.69;;;11.82;79.66
65376;BME280;51976;47.332;9.404;2023-05-09T02:30:50;92931.72;;;11.87;79.80
65376;BME280;51976;47.332;9.404;2023-05-09T02:33:17;92926.47;;;11.72;80.24
65376;BME280;51976;47.332;9.404;2023-05-09T02:35:44;92909.34;;;11.58;80.38
65376;BME280;51976;47.332;9.404;2023-05-09T02:38:11;92915.72;;;11.67;80.20
65376;BME280;51976;47.332;9.404;2023-05-09T02:40:37;92917.63;;;11.66;79.48
65376;BME280;51976;47.332;9.404;2023-05-09T02:43:03;92915.16;;;11.70;79.34
65376;BME280;51976;47.332;9.404;2023-05-09T02:45:28;92918.13;;;11.68;79.66
65376;BME280;51976;47.332;9.404;2023-05-09T02:47:54;92900.03;;;11.69;79.10
65376;BME280;51976;47.332;9.404;2023-05-09T02:50:19;92919.66;;;11.79;78.80
65376;BME280;51976;47.332;9.404;2023-05-09T02:52:44;92912.28;;;11.85;78.68
65376;BME280;51976;47.332;9.404;2023-05-09T02:55:10;92908.09;;;11.98;78.25
65376;BME280;51976;47.332;9.404;2023-05-09T02:57:35;92907.72;;;12.04;78.45
65376;BME280;51976;47.332;9.404;2023-05-09T03:00:02;92889.41;;;12.01;77.96
65376;BME280;51976;47.332;9.404;2023-05-09T03:02:28;92901.44;;;11.90;78.40
65376;BME280;51976;47.332;9.404;2023-05-09T03:04:53;92898.59;;;11.76;79.03
65376;BME280;51976;47.332;9.404;2023-05-09T03:07:18;92901.41;;;11.66;79.01
65376;BME280;51976;47.332;9.404;2023-05-09T03:09:44;92887.63;;;11.68;78.85
65376;BME280;51976;47.332;9.404;2023-05-09T03:12:09;92903.50;;;11.74;79.04
65376;BME280;51976;47.332;9.404;2023-05-09T03:14:35;92853.34;;;11.44;79.56
65376;BME280;51976;47.332;9.404;2023-05-09T03:17:00;92890.91;;;11.89;78.99
65376;BME280;51976;47.332;9.404;2023-05-09T03:19:26;92892.47;;;11.95;78.72
65376;BME280;51976;47.332;9.404;2023-05-09T03:21:51;92896.50;;;11.97;78.67
65376;BME280;51976;47.332;9.404;2023-05-09T03:24:17;92877.53;;;11.78;78.97
65376;BME280;51976;47.332;9.404;2023-05-09T03:26:42;92877.53;;;11.78;78.41
65376;BME280;51976;47.332;9.404;2023-05-09T03:29:07;92891.09;;;11.97;78.51
65376;BME280;51976;47.332;9.404;2023-05-09T03:31:33;92876.31;;;11.90;78.20
65376;BME280;51976;47.332;9.404;2023-05-09T03:33:58;92894.03;;;12.01;78.20
65376;BME280;51976;47.332;9.404;2023-05-09T03:36:24;92894.38;;;11.94;78.55
65376;BME280;51976;47.332;9.404;2023-05-09T03:38:49;92883.19;;;11.53;79.58
65376;BME280;51976;47.332;9.404;2023-05-09T03:41:16;92899.16;;;11.49;80.07
65376;BME280;51976;47.332;9.404;2023-05-09T03:43:42;92898.19;;;11.64;79.80
65376;BME280;51976;47.332;9.404;2023-05-09T03:46:08;92889.88;;;11.84;78.95
65376;BME280;51976;47.332;9.404;2023-05-09T03:48:33;92893.03;;;11.92;79.05
65376;BME280;51976;47.332;9.404;2023-05-09T03:50:59;92887.97;;;11.85;78.71
65376;BME280;51976;47.332;9.404;2023-05-09T03:53:25;92884.75;;;11.59;79.31
65376;BME280;51976;47.332;9.404;2023-05-09T03:55:50;92898.47;;;11.39;79.92
65376;BME280;51976;47.332;9.404;2023-05-09T03:58:15;92897.44;;;11.35;79.95
65376;BME280;51976;47.332;9.404;2023-05-09T04:00:43;92891.56;;;11.28;80.42
65376;BME280;51976;47.332;9.404;2023-05-09T04:03:08;92862.50;;;11.19;80.50
65376;BME280;51976;47.332;9.404;2023-05-09T04:05:34;92874.38;;;11.47;79.80
65376;BME280;51976;47.332;9.404;2023-05-09T04:07:59;92862.91;;;11.56;79.46
65376;BME280;51976;47.332;9.404;2023-05-09T04:10:25;92865.38;;;11.52;79.72
65376;BME280;51976;47.332;9.404;2023-05-09T04:12:50;92876.31;;;11.42;80.04
65376;BME280;51976;47.332;9.404;2023-05-09T04:15:16;92872.16;;;11.49;79.56
65376;BME280;51976;47.332;9.404;2023-05-09T04:17:41;92874.94;;;11.44;79.84
65376;BME280;51976;47.332;9.404;2023-05-09T04:20:08;92878.34;;;11.50;79.67
65376;BME280;51976;47.332;9.404;2023-05-09T04:22:34;92879.81;;;11.66;78.97
65376;BME280;51976;47.332;9.404;2023-05-09T04:25:00;92872.38;;;11.53;79.23
65376;BME280;51976;47.332;9.404;2023-05-09T04:27:26;92884.47;;;11.61;78.81
65376;BME280;51976;47.332;9.404;2023-05-09T04:29:52;92873.72;;;11.56;79.14
65376;BME280;51976;47.332;9.404;2023-05-09T04:32:19;92857.59;;;11.22;79.56
65376;BME280;51976;47.332;9.404;2023-05-09T04:34:45;92865.59;;;11.32;79.65
65376;BME280;51976;47.332;9.404;2023-05-09T04:37:10;92873.28;;;11.48;79.48
65376;BME280;51976;47.332;9.404;2023-05-09T04:39:37;92871.44;;;11.68;78.94
65376;BME280;51976;47.332;9.404;2023-05-09T04:42:03;92869.41;;;11.78;78.68
65376;BME280;51976;47.332;9.404;2023-05-09T04:44:28;92877.75;;;11.82;78.56
65376;BME280;51976;47.332;9.404;2023-05-09T04:46:53;92878.50;;;11.88;78.43
65376;BME280;51976;47.332;9.404;2023-05-09T04:49:19;92875.28;;;11.85;78.57
65376;BME280;51976;47.332;9.404;2023-05-09T04:51:44;92863.44;;;11.81;78.57
65376;BME280;51976;47.332;9.404;2023-05-09T04:54:10;92856.16;;;11.82;78.68
65376;BME280;51976;47.332;9.404;2023-05-09T04:56:35;92868.63;;;12.02;78.15
65376;BME280;51976;47.332;9.404;2023-05-09T04:59:00;92875.63;;;12.03;78.16
65376;BME280;51976;47.332;9.404;2023-05-09T05:01:26;92843.56;;;11.96;77.79
65376;BME280;51976;47.332;9.404;2023-05-09T05:03:51;92867.94;;;12.10;77.79
65376;BME280;51976;47.332;9.404;2023-05-09T05:06:16;92864.88;;;11.98;77.78
65376;BME280;51976;47.332;9.404;2023-05-09T05:08:42;92860.34;;;12.12;80.04
65376;BME280;51976;47.332;9.404;2023-05-09T05:11:07;92860.41;;;12.82;80.73
65376;BME280;51976;47.332;9.404;2023-05-09T05:13:33;92847.25;;;13.08;78.96
65376;BME280;51976;47.332;9.404;2023-05-09T05:15:58;92844.47;;;12.62;75.01
65376;BME280;51976;47.332;9.404;2023-05-09T05:18:24;92849.34;;;12.46;76.85
65376;BME280;51976;47.332;9.404;2023-05-09T05:20:49;92843.97;;;12.60;77.53
65376;BME280;51976;47.332;9.404;2023-05-09T05:23:14;92853.66;;;13.31;75.85
65376;BME280;51976;47.332;9.404;2023-05-09T05:25:40;92845.75;;;13.75;74.22
65376;BME280;51976;47.332;9.404;2023-05-09T05:28:05;92829.69;;;13.93;75.43
65376;BME280;51976;47.332;9.404;2023-05-09T05:30:30;92864.91;;;14.20;74.15
65376;BME280;51976;47.332;9.404;2023-05-09T05:32:56;92868.56;;;14.38;72.99
65376;BME280;51976;47.332;9.404;2023-05-09T05:35:21;92865.69;;;14.20;70.33
65376;BME280;51976;47.332;9.404;2023-05-09T05:37:47;92863.59;;;13.49;72.12
65376;BME280;51976;47.332;9.404;2023-05-09T05:40:13;92859.16;;;13.26;73.61
65376;BME280;51976;47.332;9.404;2023-05-09T05:42:38;92854.00;;;12.92;74.44
65376;BME280;51976;47.332;9.404;2023-05-09T05:45:04;92863.88;;;13.01;74.75
65376;BME280;51976;47.332;9.404;2023-05-09T05:47:33;92857.00;;;12.90;75.03
65376;BME280;51976;47.332;9.404;2023-05-09T05:50:01;92803.28;;;12.51;74.93
65376;BME280;51976;47.332;9.404;2023-05-09T05:52:27;92863.94;;;12.64;75.60
65376;BME280;51976;47.332;9.404;2023-05-09T05:54:53;92860.31;;;12.54;75.43
65376;BME280;51976;47.332;9.404;2023-05-09T05:57:19;92848.75;;;12.49;75.38
65376;BME280;51976;47.332;9.404;2023-05-09T05:59:48;92845.53;;;12.47;75.71
65376;BME280;51976;47.332;9.404;2023-05-09T06:02:15;92836.75;;;12.36;76.01
65376;BME280;51976;47.332;9.404;2023-05-09T06:04:41;92862.41;;;12.58;75.83
65376;BME280;51976;47.332;9.404;2023-05-09T06:07:06;92858.97;;;12.52;76.24
65376;BME280;51976;47.332;9.404;2023-05-09T06:09:32;92862.84;;;12.46;76.48
65376;BME280;51976;47.332;9.404;2023-05-09T06:11:57;92864.38;;;12.71;76.01
65376;BME280;51976;47.332;9.404;2023-05-09T06:14:22;92847.88;;;12.53;76.73
65376;BME280;51976;47.332;9.404;2023-05-09T06:16:48;92833.66;;;12.29;77.11
65376;BME280;51976;47.332;9.404;2023-05-09T06:19:16;92848.16;;;12.33;77.61
65376;BME280;51976;47.332;9.404;2023-05-09T06:21:42;92839.75;;;12.35;76.84
65376;BME280;51976;47.332;9.404;2023-05-09T06:24:08;92838.59;;;12.41;77.03
65376;BME280;51976;47.332;9.404;2023-05-09T06:26:34;92815.34;;;12.40;76.81
65376;BME280;51976;47.332;9.404;2023-05-09T06:28:59;92780.47;;;12.25;76.78
65376;BME280;51976;47.332;9.404;2023-05-09T06:31:25;92828.75;;;12.64;76.50
65376;BME280;51976;47.332;9.404;2023-05-09T06:33:50;92831.41;;;12.69;75.76
65376;BME280;51976;47.332;9.404;2023-05-09T06:36:17;92763.47;;;12.38;75.33
65376;BME280;51976;47.332;9.404;2023-05-09T06:38:43;92823.59;;;13.13;74.44
65376;BME280;51976;47.332;9.404;2023-05-09T06:41:09;92825.25;;;13.28;74.11
65376;BME280;51976;47.332;9.404;2023-05-09T06:43:36;92821.66;;;13.46;73.70
65376;BME280;51976;47.332;9.404;2023-05-09T06:46:01;92824.56;;;13.50;73.69
65376;BME280;51976;47.332;9.404;2023-05-09T06:48:27;92816.25;;;13.60;73.01
65376;BME280;51976;47.332;9.404;2023-05-09T06:50:53;92772.63;;;13.20;73.06
65376;BME280;51976;47.332;9.404;2023-05-09T06:53:18;92810.03;;;13.46;72.73
65376;BME280;51976;47.332;9.404;2023-05-09T06:55:44;92817.28;;;13.64;72.62
65376;BME280;51976;47.332;9.404;2023-05-09T06:58:09;92800.00;;;13.74;71.77
65376;BME280;51976;47.332;9.404;2023-05-09T07:00:36;92800.38;;;13.81;71.62
65376;BME280;51976;47.332;9.404;2023-05-09T07:03:02;92780.53;;;13.85;71.23
65376;BME280;51976;47.332;9.404;2023-05-09T07:05:28;92782.03;;;13.92;70.05
65376;BME280;51976;47.332;9.404;2023-05-09T07:07:59;92803.03;;;14.22;69.17
65376;BME280;51976;47.332;9.404;2023-05-09T07:10:26;92763.16;;;13.86;69.41
65376;BME280;51976;47.332;9.404;2023-05-09T07:12:51;92796.44;;;14.14;70.07
65376;BME280;51976;47.332;9.404;2023-05-09T07:15:17;92754.97;;;14.00;69.27
65376;BME280;51976;47.332;9.404;2023-05-09T07:17:42;92763.34;;;14.26;69.36
65376;BME280;51976;47.332;9.404;2023-05-09T07:20:08;92781.34;;;14.58;69.22
65376;BME280;51976;47.332;9.404;2023-05-09T07:22:33;92777.00;;;14.57;68.60
65376;BME280;51976;47.332;9.404;2023-05-09T07:24:59;92776.41;;;14.60;68.66
65376;BME280;51976;47.332;9.404;2023-05-09T07:27:24;92771.41;;;14.76;68.11
65376;BME280;51976;47.332;9.404;2023-05-09T07:29:50;92770.03;;;14.87;68.40
65376;BME280;51976;47.332;9.404;2023-05-09T07:32:18;92764.50;;;14.92;67.88
65376;BME280;51976;47.332;9.404;2023-05-09T07:34:44;92738.75;;;14.89;67.81
65376;BME280;51976;47.332;9.404;2023-05-09T07:37:09;92752.22;;;14.95;67.94
65376;BME280;51976;47.332;9.404;2023-05-09T07:39:35;92742.28;;;14.90;68.17
65376;BME280;51976;47.332;9.404;2023-05-09T07:42:00;92745.94;;;14.63;68.57
65376;BME280;51976;47.332;9.404;2023-05-09T07:44:26;92740.72;;;14.67;68.73
65376;BME280;51976;47.332;9.404;2023-05-09T07:46:51;92735.28;;;14.67;68.14
65376;BME280;51976;47.332;9.404;2023-05-09T07:49:19;92654.69;;;14.22;67.26
65376;BME280;51976;47.332;9.404;2023-05-09T07:51:46;92744.34;;;14.62;68.50
65376;BME280;51976;47.332;9.404;2023-05-09T07:54:11;92740.91;;;14.70;67.85
65376;BME280;51976;47.332;9.404;2023-05-09T07:56:37;92694.81;;;14.48;67.74
65376;BME280;51976;47.332;9.404;2023-05-09T07:59:03;92732.91;;;14.96;67.48
65376;BME280;51976;47.332;9.404;2023-05-09T08:01:28;92722.84;;;14.97;67.71
65376;BME280;51976;47.332;9.404;2023-05-09T08:03:54;92722.81;;;15.28;67.33
65376;BME280;51976;47.332;9.404;2023-05-09T08:06:19;92721.09;;;15.32;66.92
65376;BME280;51976;47.332;9.404;2023-05-09T08:08:44;92680.50;;;15.35;66.54
65376;BME280;51976;47.332;9.404;2023-05-09T08:11:10;92678.75;;;15.31;66.47
65376;BME280;51976;47.332;9.404;2023-05-09T08:13:35;92719.13;;;15.72;65.60
65376;BME280;51976;47.332;9.404;2023-05-09T08:16:01;92699.19;;;16.19;64.30
65376;BME280;51976;47.332;9.404;2023-05-09T08:18:27;92699.63;;;16.90;63.60
65376;BME280;51976;47.332;9.404;2023-05-09T08:20:52;92703.16;;;16.91;62.87
65376;BME280;51976;47.332;9.404;2023-05-09T08:23:18;92684.44;;;16.72;63.04
65376;BME280;51976;47.332;9.404;2023-05-09T08:25:43;92651.91;;;16.84;62.27
65376;BME280;51976;47.332;9.404;2023-05-09T08:28:09;92696.09;;;16.90;62.95
65376;BME280;51976;47.332;9.404;2023-05-09T08:30:35;92630.53;;;16.48;63.19
65376;BME280;51976;47.332;9.404;2023-05-09T08:33:00;92646.66;;;16.71;62.33
65376;BME280;51976;47.332;9.404;2023-05-09T08:35:26;92677.91;;;17.20;62.06
65376;BME280;51976;47.332;9.404;2023-05-09T08:37:51;92670.63;;;17.62;61.11
65376;BME280;51976;47.332;9.404;2023-05-09T08:40:17;92666.28;;;17.40;61.96
65376;BME280;51976;47.332;9.404;2023-05-09T08:42:44;92660.47;;;17.50;61.15
65376;BME280;51976;47.332;9.404;2023-05-09T08:45:12;92648.56;;;18.05;59.54
65376;BME280;51976;47.332;9.404;2023-05-09T08:47:41;92610.03;;;17.65;59.97
65376;BME280;51976;47.332;9.404;2023-05-09T08:50:08;92654.66;;;17.52;61.55
65376;BME280;51976;47.332;9.404;2023-05-09T08:52:34;92655.06;;;17.71;60.36
65376;BME280;51976;47.332;9.404;2023-05-09T08:55:02;92648.94;;;17.74;59.46
65376;BME280;51976;47.332;9.404;2023-05-09T08:57:31;92645.28;;;17.70;59.48
65376;BME280;51976;47.332;9.404;2023-05-09T08:59:57;92599.38;;;16.92;59.57
65376;BME280;51976;47.332;9.404;2023-05-09T09:02:23;92646.25;;;16.98;60.40
65376;BME280;51976;47.332;9.404;2023-05-09T09:04:49;92629.69;;;17.20;60.38
65376;BME280;51976;47.332;9.404;2023-05-09T09:07:16;92588.47;;;16.92;60.03
65376;BME280;51976;47.332;9.404;2023-05-09T09:09:47;92631.84;;;17.56;60.38
65376;BME280;51976;47.332;9.404;2023-05-09T09:12:15;92630.41;;;17.59;60.14
65376;BME280;51976;47.332;9.404;2023-05-09T09:14:46;92622.81;;;18.15;58.33
65376;BME280;51976;47.332;9.404;2023-05-09T09:17:18;92625.22;;;17.75;58.99
65376;BME280;51976;47.332;9.404;2023-05-09T09:19:49;92583.47;;;17.53;59.14
65376;BME280;51976;47.332;9.404;2023-05-09T09:22:18;92596.03;;;16.87;60.64
65376;BME280;51976;47.332;9.404;2023-05-09T09:24:44;92626.47;;;16.80;61.45
65376;BME280;51976;47.332;9.404;2023-05-09T09:27:11;92596.66;;;16.84;60.98
65376;BME280;51976;47.332;9.404;2023-05-09T09:29:37;92612.44;;;17.37;60.74
65376;BME280;51976;47.332;9.404;2023-05-09T09:32:05;92609.41;;;17.59;59.64
65376;BME280;51976;47.332;9.404;2023-05-09T09:34:31;92552.13;;;17.89;58.07
65376;BME280;51976;47.332;9.404;2023-05-09T09:36:58;92594.28;;;18.45;57.46
65376;BME280;51976;47.332;9.404;2023-05-09T09:39:24;92590.00;;;17.82;58.97
65376;BME280;51976;47.332;9.404;2023-05-09T09:41:50;92591.56;;;17.91;58.86
65376;BME280;51976;47.332;9.404;2023-05-09T09:44:17;92587.72;;;17.72;59.64
65376;BME280;51976;47.332;9.404;2023-05-09T09:46:47;92546.34;;;17.70;59.42
65376;BME280;51976;47.332;9.404;2023-05-09T09:49:14;92582.09;;;17.18;60.88
65376;BME280;51976;47.332;9.404;2023-05-09T09:51:40;92576.78;;;17.21;60.53
65376;BME280;51976;47.332;9.404;2023-05-09T09:54:06;92578.94;;;17.37;60.10
65376;BME280;51976;47.332;9.404;2023-05-09T09:56:46;92536.75;;;17.84;58.89
65376;BME280;51976;47.332;9.404;2023-05-09T09:59:13;92556.97;;;18.49;57.48
65376;BME280;51976;47.332;9.404;2023-05-09T10:02:01;92547.78;;;17.88;59.33
65376;BME280;51976;47.332;9.404;2023-05-09T10:04:32;92548.66;;;18.01;59.75
65376;BME280;51976;47.332;9.404;2023-05-09T10:07:00;92520.19;;;18.35;57.93
65376;BME280;51976;47.332;9.404;2023-05-09T10:09:28;92538.09;;;19.14;56.59
65376;BME280;51976;47.332;9.404;2023-05-09T10:11:54;92513.84;;;18.31;57.87
65376;BME280;51976;47.332;9.404;2023-05-09T10:14:22;92529.28;;;18.72;57.32
65376;BME280;51976;47.332;9.404;2023-05-09T10:16:50;92501.56;;;18.37;58.27
65376;BME280;51976;47.332;9.404;2023-05-09T10:19:17;92524.31;;;18.29;59.94
65376;BME280;51976;47.332;9.404;2023-05-09T10:21:53;92505.13;;;17.71;60.16
65376;BME280;51976;47.332;9.404;2023-05-09T10:24:38;92521.50;;;17.63;60.38
65376;BME280;51976;47.332;9.404;2023-05-09T10:27:08;92515.13;;;17.79;60.12
65376;BME280;51976;47.332;9.404;2023-05-09T10:29:37;92507.09;;;17.83;59.52
65376;BME280;51976;47.332;9.404;2023-05-09T10:32:16;92503.38;;;17.87;59.27
65376;BME280;51976;47.332;9.404;2023-05-09T10:34:46;92499.78;;;18.08;58.80
65376;BME280;51976;47.332;9.404;2023-05-09T10:37:13;92429.38;;;17.56;59.52
65376;BME280;51976;47.332;9.404;2023-05-09T10:39:40;92501.56;;;17.91;60.14
65376;BME280;51976;47.332;9.404;2023-05-09T10:42:06;92501.09;;;17.89;59.40
65376;BME280;51976;47.332;9.404;2023-05-09T10:44:32;92489.66;;;17.96;59.01
65376;BME280;51976;47.332;9.404;2023-05-09T10:47:00;92384.09;;;17.31;59.44
65376;BME280;51976;47.332;9.404;2023-05-09T10:49:26;92430.16;;;18.22;58.18
65376;BME280;51976;47.332;9.404;2023-05-09T10:51:52;92471.44;;;18.45;58.53
65376;BME280;51976;47.332;9.404;2023-05-09T10:54:28;92463.50;;;18.52;58.28
65376;BME280;51976;47.332;9.404;2023-05-09T10:56:54;92447.91;;;18.41;59.20
65376;BME280;51976;47.332;9.404;2023-05-09T10:59:41;92456.47;;;18.88;59.02
65376;BME280;51976;47.332;9.404;2023-05-09T11:02:13;92449.63;;;18.94;58.88
65376;BME280;51976;47.332;9.404;2023-05-09T11:04:40;92397.75;;;18.45;58.97
65376;BME280;51976;47.332;9.404;2023-05-09T11:07:22;92437.72;;;18.74;60.49
65376;BME280;51976;47.332;9.404;2023-05-09T11:09:52;92432.09;;;18.46;60.67
65376;BME280;51976;47.332;9.404;2023-05-09T11:12:19;92390.69;;;18.08;61.98
65376;BME280;51976;47.332;9.404;2023-05-09T11:14:47;92386.47;;;17.98;61.73
65376;BME280;51976;47.332;9.404;2023-05-09T11:17:27;92382.63;;;17.99;61.85
65376;BME280;51976;47.332;9.404;2023-05-09T11:19:57;92421.16;;;18.34;62.36
65376;BME280;51976;47.332;9.404;2023-05-09T11:22:29;92412.31;;;18.37;61.67
65376;BME280;51976;47.332;9.404;2023-05-09T11:25:02;92419.34;;;18.14;62.43
65376;BME280;51976;47.332;9.404;2023-05-09T11:27:37;92414.72;;;18.51;62.09
65376;BME280;51976;47.332;9.404;2023-05-09T11:30:05;92414.47;;;18.44;62.32
65376;BME280;51976;47.332;9.404;2023-05-09T11:32:33;92392.84;;;18.02;63.13
65376;BME280;51976;47.332;9.404;2023-05-09T11:35:09;92407.50;;;18.10;63.29
65376;BME280;51976;47.332;9.404;2023-05-09T11:37:44;92403.06;;;17.93;63.75
65376;BME280;51976;47.332;9.404;2023-05-09T11:40:12;92403.16;;;17.84;64.04
65376;BME280;51976;47.332;9.404;2023-05-09T11:42:44;92392.69;;;17.74;64.37
65376;BME280;51976;47.332;9.404;2023-05-09T11:45:12;92357.34;;;17.66;64.22
65376;BME280;51976;47.332;9.404;2023-05-09T11:47:39;92392.69;;;17.86;65.06
65376;BME280;51976;47.332;9.404;2023-05-09T11:50:07;92363.50;;;17.75;64.48
65376;BME280;51976;47.332;9.404;2023-05-09T11:52:34;92306.72;;;17.44;63.78
65376;BME280;51976;47.332;9.404;2023-05-09T11:55:02;92364.28;;;17.87;63.28
65376;BME280;51976;47.332;9.404;2023-05-09T11:57:28;92379.66;;;17.92;64.11
65376;BME280;51976;47.332;9.404;2023-05-09T11:59:55;92364.31;;;18.12;63.17
65376;BME280;51976;47.332;9.404;2023-05-09T12:02:21;92371.59;;;18.20;64.03
65376;BME280;51976;47.332;9.404;2023-05-09T12:04:47;92361.25;;;18.13;64.21
65376;BME280;51976;47.332;9.404;2023-05-09T12:07:23;92365.13;;;18.24;64.23
65376;BME280;51976;47.332;9.404;2023-05-09T12:09:50;92366.59;;;18.34;62.41
65376;BME280;51976;47.332;9.404;2023-05-09T12:12:16;92356.59;;;18.38;62.06
65376;BME280;51976;47.332;9.404;2023-05-09T12:14:44;92355.47;;;18.27;62.55
65376;BME280;51976;47.332;9.404;2023-05-09T12:17:10;92362.97;;;18.30;62.84
65376;BME280;51976;47.332;9.404;2023-05-09T12:19:37;92348.97;;;18.07;63.65
65376;BME280;51976;47.332;9.404;2023-05-09T12:22:04;92347.41;;;18.18;63.51
65376;BME280;51976;47.332;9.404;2023-05-09T12:24:34;92346.84;;;18.25;63.27
65376;BME280;51976;47.332;9.404;2023-05-09T12:27:00;92343.19;;;18.09;63.81
65376;BME280;51976;47.332;9.404;2023-05-09T12:29:26;92311.38;;;17.76;64.03
65376;BME280;51976;47.332;9.404;2023-05-09T12:31:52;92324.78;;;17.93;63.73
65376;BME280;51976;47.332;9.404;2023-05-09T12:34:18;92342.06;;;17.98;63.73
65376;BME280;51976;47.332;9.404;2023-05-09T12:36:45;92314.31;;;17.71;63.57
65376;BME280;51976;47.332;9.404;2023-05-09T12:39:18;92331.00;;;17.70;64.54
65376;BME280;51976;47.332;9.404;2023-05-09T12:41:48;92334.84;;;17.81;64.20
65376;BME280;51976;47.332;9.404;2023-05-09T12:44:18;92329.66;;;17.76;65.15
65376;BME280;51976;47.332;9.404;2023-05-09T12:46:55;92325.03;;;17.55;64.74
65376;BME280;51976;47.332;9.404;2023-05-09T12:49:22;92326.00;;;17.84;64.04
65376;BME280;51976;47.332;9.404;2023-05-09T12:51:48;92333.97;;;17.77;64.50
65376;BME280;51976;47.332;9.404;2023-05-09T12:54:22;92331.34;;;17.80;64.76
65376;BME280;51976;47.332;9.404;2023-05-09T12:56:48;92198.59;;;17.11;64.27
65376;BME280;51976;47.332;9.404;2023-05-09T12:59:19;92323.19;;;18.05;63.41
65376;BME280;51976;47.332;9.404;2023-05-09T13:01:53;92286.59;;;17.81;63.08
65376;BME280;51976;47.332;9.404;2023-05-09T13:04:21;92313.97;;;17.97;62.53